sensor_id;sensor_type;location;lat;lon;timestamp;pressure;altitude;pressure_sealevel;temperature;humidity
6204;BME280;3135;42.602;23.468;2023-08-06T00:02:03;91732.47;;;19.27;100.00
6204;BME280;3135;42.602;23.468;2023-08-06T00:04:28;91733.59;;;19.22;100.00
6204;BME280;3135;42.602;23.468;2023-08-06T00:06:54;91758.28;;;19.17;100.00
6204;BME280;3135;42.602;23.468;2023-08-06T00:09:19;91727.72;;;19.17;100.00
6204;BME280;3135;42.602;23.468;2023-08-06T00:11:44;91737.13;;;19.26;100.00
6204;BME280;3135;42.602;23.468;2023-08-06T00:14:12;91725.72;;;19.13;100.00
6204;BME280;3135;42.602;23.468;2023-08-06T00:16:37;91718.44;;;19.18;100.00
6204;BME280;3135;42.602;23.468;2023-08-06T00:19:03;91708.88;;;19.27;100.00
6204;BME280;3135;42.602;23.468;2023-08-06T00:21:28;91688.59;;;19.14;100.00
6204;BME280;3135;42.602;23.468;2023-08-06T00:23:53;91700.78;;;19.31;100.00
6204;BME280;3135;42.602;23.468;2023-08-06T00:26:19;91716.66;;;19.32;100.00
6204;BME280;3135;42.602;23.468;2023-08-06T00:28:45;91693.06;;;19.33;100.00
6204;BME280;3135;42.602;23.468;2023-08-06T00:31:10;91719.78;;;19.01;100.00
6204;BME280;3135;42.602;23.468;2023-08-06T00:33:35;91697.63;;;18.92;100.00
6204;BME280;3135;42.602;23.468;2023-08-06T00:36:01;91698.78;;;19.24;100.00
6204;BME280;3135;42.602;23.468;2023-08-06T00:38:26;91699.84;;;19.50;100.00
6204;BME280;3135;42.602;23.468;2023-08-06T00:40:52;91683.72;;;19.60;100.00
6204;BME280;3135;42.602;23.468;2023-08-06T00:43:18;91692.28;;;19.62;100.00
6204;BME280;3135;42.602;23.468;2023-08-06T00:45:44;91667.34;;;19.50;100.00
6204;BME280;3135;42.602;23.468;2023-08-06T00:48:09;91693.44;;;19.65;100.00
6204;BME280;3135;42.602;23.468;2023-08-06T00:50:35;91667.06;;;19.25;100.00
6204;BME280;3135;42.602;23.468;2023-08-06T00:53:01;91669.19;;;19.08;100.00
6204;BME280;3135;42.602;23.468;2023-08-06T00:55:27;91658.47;;;19.15;100.00
6204;BME280;3135;42.602;23.468;2023-08-06T00:57:53;91683.47;;;19.39;100.00
6204;BME280;3135;42.602;23.468;2023-08-06T01:00:21;91675.97;;;19.25;100.00
6204;BME280;3135;42.602;23.468;2023-08-06T01:02:48;91677.31;;;19.42;100.00
6204;BME280;3135;42.602;23.468;2023-08-06T01:05:14;91658.22;;;19.31;100.00
6204;BME280;3135;42.602;23.468;2023-08-06T01:13:47;91643.63;;;19.80;100.00
6204;BME280;3135;42.602;23.468;2023-08-06T01:16:18;91635.56;;;19.47;100.00
6204;BME280;3135;42.602;23.468;2023-08-06T01:18:44;91635.78;;;19.68;100.00
6204;BME280;3135;42.602;23.468;2023-08-06T01:21:17;91630.41;;;19.75;100.00
6204;BME280;3135;42.602;23.468;2023-08-06T01:23:43;91630.16;;;19.87;100.00
6204;BME280;3135;42.602;23.468;2023-08-06T01:26:22;91620.47;;;19.86;100.00
6204;BME280;3135;42.602;23.468;2023-08-06T01:31:22;91606.91;;;19.86;100.00
6204;BME280;3135;42.602;23.468;2023-08-06T01:33:49;91610.78;;;19.89;100.00
6204;BME280;3135;42.602;23.468;2023-08-06T01:36:16;91628.94;;;19.81;100.00
6204;BME280;3135;42.602;23.468;2023-08-06T01:38:43;91635.03;;;19.71;100.00
6204;BME280;3135;42.602;23.468;2023-08-06T01:41:09;91612.41;;;19.56;100.00
6204;BME280;3135;42.602;23.468;2023-08-06T01:43:34;91611.78;;;19.29;100.00
6204;BME280;3135;42.602;23.468;2023-08-06T01:46:00;91597.81;;;19.27;100.00
6204;BME280;3135;42.602;23.468;2023-08-06T01:48:25;91602.09;;;19.28;100.00
6204;BME280;3135;42.602;23.468;2023-08-06T01:50:51;91625.44;;;19.40;100.00
6204;BME280;3135;42.602;23.468;2023-08-06T01:53:16;91605.28;;;19.37;100.00
6204;BME280;3135;42.602;23.468;2023-08-06T01:55:41;91613.91;;;19.50;100.00
6204;BME280;3135;42.602;23.468;2023-08-06T01:58:07;91601.97;;;19.55;100.00
6204;BME280;3135;42.602;23.468;2023-08-06T02:00:32;91594.81;;;19.36;100.00
6204;BME280;3135;42.602;23.468;2023-08-06T02:02:58;91602.72;;;19.14;100.00
6204;BME280;3135;42.602;23.468;2023-08-06T02:05:23;91594.25;;;19.16;100.00
6204;BME280;3135;42.602;23.468;2023-08-06T02:07:48;91591.94;;;19.18;100.00
6204;BME280;3135;42.602;23.468;2023-08-06T02:10:14;91597.78;;;19.20;100.00
6204;BME280;3135;42.602;23.468;2023-08-06T02:12:39;91587.09;;;18.97;100.00
6204;BME280;3135;42.602;23.468;2023-08-06T02:15:05;91583.16;;;18.95;100.00
6204;BME280;3135;42.602;23.468;2023-08-06T02:17:31;91601.22;;;18.83;100.00
6204;BME280;3135;42.602;23.468;2023-08-06T02:19:56;91598.34;;;18.69;100.00
6204;BME280;3135;42.602;23.468;2023-08-06T02:22:22;91602.75;;;18.51;100.00
6204;BME280;3135;42.602;23.468;2023-08-06T02:24:49;91596.63;;;18.57;100.00
6204;BME280;3135;42.602;23.468;2023-08-06T02:27:14;91616.00;;;18.63;100.00
6204;BME280;3135;42.602;23.468;2023-08-06T02:29:40;91612.91;;;18.61;100.00
6204;BME280;3135;42.602;23.468;2023-08-06T02:32:07;91621.34;;;18.56;100.00
6204;BME280;3135;42.602;23.468;2023-08-06T02:34:32;91620.34;;;18.37;100.00
6204;BME280;3135;42.602;23.468;2023-08-06T02:36:57;91616.59;;;18.46;100.00
6204;BME280;3135;42.602;23.468;2023-08-06T02:39:23;91626.72;;;18.52;100.00
6204;BME280;3135;42.602;23.468;2023-08-06T02:41:48;91640.34;;;18.59;100.00
6204;BME280;3135;42.602;23.468;2023-08-06T02:44:14;91632.50;;;18.51;100.00
6204;BME280;3135;42.602;23.468;2023-08-06T02:46:39;91622.66;;;18.39;100.00
6204;BME280;3135;42.602;23.468;2023-08-06T02:49:06;91635.09;;;18.44;100.00
6204;BME280;3135;42.602;23.468;2023-08-06T02:51:31;91651.84;;;18.53;100.00
6204;BME280;3135;42.602;23.468;2023-08-06T02:53:57;91633.97;;;18.45;100.00
6204;BME280;3135;42.602;23.468;2023-08-06T02:56:22;91630.63;;;18.55;100.00
6204;BME280;3135;42.602;23.468;2023-08-06T02:58:47;91633.28;;;18.51;100.00
6204;BME280;3135;42.602;23.468;2023-08-06T03:01:13;91627.53;;;18.86;100.00
6204;BME280;3135;42.602;23.468;2023-08-06T03:03:39;91619.13;;;18.92;100.00
6204;BME280;3135;42.602;23.468;2023-08-06T03:06:04;91610.28;;;18.98;100.00
6204;BME280;3135;42.602;23.468;2023-08-06T03:08:30;91597.13;;;18.97;100.00
6204;BME280;3135;42.602;23.468;2023-08-06T03:10:56;91642.81;;;19.02;100.00
6204;BME280;3135;42.602;23.468;2023-08-06T03:13:21;91643.78;;;18.86;100.00
6204;BME280;3135;42.602;23.468;2023-08-06T03:15:57;91628.84;;;18.96;100.00
6204;BME280;3135;42.602;23.468;2023-08-06T03:18:23;91579.13;;;18.78;100.00
6204;BME280;3135;42.602;23.468;2023-08-06T03:20:51;91556.38;;;18.82;100.00
6204;BME280;3135;42.602;23.468;2023-08-06T03:23:16;91545.47;;;18.75;100.00
6204;BME280;3135;42.602;23.468;2023-08-06T03:25:42;91558.25;;;18.78;100.00
6204;BME280;3135;42.602;23.468;2023-08-06T03:28:07;91582.00;;;18.62;100.00
6204;BME280;3135;42.602;23.468;2023-08-06T03:30:33;91601.31;;;18.60;100.00
6204;BME280;3135;42.602;23.468;2023-08-06T03:32:58;91619.09;;;18.61;100.00
6204;BME280;3135;42.602;23.468;2023-08-06T03:35:24;91624.97;;;18.67;100.00
6204;BME280;3135;42.602;23.468;2023-08-06T03:37:49;91623.03;;;18.37;100.00
6204;BME280;3135;42.602;23.468;2023-08-06T03:40:15;91628.31;;;18.27;100.00
6204;BME280;3135;42.602;23.468;2023-08-06T03:42:41;91638.69;;;18.25;100.00
6204;BME280;3135;42.602;23.468;2023-08-06T03:45:06;91639.97;;;18.34;100.00
6204;BME280;3135;42.602;23.468;2023-08-06T03:47:32;91629.47;;;18.26;100.00
6204;BME280;3135;42.602;23.468;2023-08-06T05:08:03;91553.22;;;18.47;100.00
6204;BME280;3135;42.602;23.468;2023-08-06T05:10:29;91562.59;;;18.56;100.00
6204;BME280;3135;42.602;23.468;2023-08-06T05:12:54;91562.72;;;18.63;100.00
6204;BME280;3135;42.602;23.468;2023-08-06T05:15:20;91555.88;;;18.73;100.00
6204;BME280;3135;42.602;23.468;2023-08-06T05:17:45;91544.06;;;18.88;100.00
6204;BME280;3135;42.602;23.468;2023-08-06T05:20:11;91569.81;;;19.12;100.00
6204;BME280;3135;42.602;23.468;2023-08-06T05:22:36;91565.66;;;19.22;100.00
6204;BME280;3135;42.602;23.468;2023-08-06T05:25:02;91566.31;;;19.08;100.00
6204;BME280;3135;42.602;23.468;2023-08-06T05:27:27;91576.13;;;19.24;100.00
6204;BME280;3135;42.602;23.468;2023-08-06T05:29:55;91571.84;;;19.23;100.00
6204;BME280;3135;42.602;23.468;2023-08-06T05:32:21;91581.97;;;19.26;100.00
6204;BME280;3135;42.602;23.468;2023-08-06T05:34:46;91577.78;;;19.35;100.00
6204;BME280;3135;42.602;23.468;2023-08-06T05:37:12;91571.22;;;19.36;100.00
6204;BME280;3135;42.602;23.468;2023-08-06T05:39:37;91572.00;;;19.37;100.00
6204;BME280;3135;42.602;23.468;2023-08-06T05:42:03;91575.59;;;19.52;100.00
6204;BME280;3135;42.602;23.468;2023-08-06T05:44:28;91580.38;;;19.62;100.00
6204;BME280;3135;42.602;23.468;2023-08-06T05:46:53;91569.91;;;19.60;100.00
6204;BME280;3135;42.602;23.468;2023-08-06T05:49:19;91567.28;;;19.71;100.00
6204;BME280;3135;42.602;23.468;2023-08-06T05:51:44;91576.31;;;19.89;100.00
6204;BME280;3135;42.602;23.468;2023-08-06T05:54:10;91566.13;;;19.72;100.00
6204;BME280;3135;42.602;23.468;2023-08-06T05:56:35;91573.16;;;19.80;100.00
6204;BME280;3135;42.602;23.468;2023-08-06T05:59:01;91569.63;;;19.73;100.00
6204;BME280;3135;42.602;23.468;2023-08-06T06:01:26;91582.13;;;19.88;100.00
6204;BME280;3135;42.602;23.468;2023-08-06T06:03:51;91605.13;;;20.05;100.00
6204;BME280;3135;42.602;23.468;2023-08-06T06:06:17;91595.31;;;19.93;100.00
6204;BME280;3135;42.602;23.468;2023-08-06T06:08:44;91613.63;;;20.07;100.00
6204;BME280;3135;42.602;23.468;2023-08-06T06:11:09;91556.00;;;19.62;100.00
6204;BME280;3135;42.602;23.468;2023-08-06T06:13:35;91614.38;;;19.59;100.00
6204;BME280;3135;42.602;23.468;2023-08-06T06:16:00;91607.59;;;19.35;100.00
6204;BME280;3135;42.602;23.468;2023-08-06T06:18:26;91610.88;;;19.18;100.00
6204;BME280;3135;42.602;23.468;2023-08-06T06:20:51;91616.81;;;19.31;100.00
6204;BME280;3135;42.602;23.468;2023-08-06T06:23:16;91641.78;;;19.51;100.00
6204;BME280;3135;42.602;23.468;2023-08-06T06:25:43;91645.69;;;19.53;100.00
6204;BME280;3135;42.602;23.468;2023-08-06T06:28:09;91639.16;;;19.21;100.00
6204;BME280;3135;42.602;23.468;2023-08-06T06:30:34;91643.25;;;19.41;100.00
6204;BME280;3135;42.602;23.468;2023-08-06T06:33:00;91580.19;;;19.03;100.00
6204;BME280;3135;42.602;23.468;2023-08-06T06:35:25;91628.75;;;18.59;100.00
6204;BME280;3135;42.602;23.468;2023-08-06T06:37:50;91641.41;;;18.81;100.00
6204;BME280;3135;42.602;23.468;2023-08-06T06:40:16;91633.88;;;18.98;100.00
6204;BME280;3135;42.602;23.468;2023-08-06T06:42:42;91645.94;;;19.04;100.00
6204;BME280;3135;42.602;23.468;2023-08-06T06:45:08;91651.41;;;19.07;100.00
6204;BME280;3135;42.602;23.468;2023-08-06T06:47:33;91663.50;;;19.17;100.00
6204;BME280;3135;42.602;23.468;2023-08-06T06:49:59;91668.97;;;19.21;100.00
6204;BME280;3135;42.602;23.468;2023-08-06T06:52:24;91655.38;;;19.17;100.00
6204;BME280;3135;42.602;23.468;2023-08-06T06:54:50;91671.50;;;19.40;100.00
6204;BME280;3135;42.602;23.468;2023-08-06T06:57:15;91681.59;;;19.47;100.00
6204;BME280;3135;42.602;23.468;2023-08-06T06:59:40;91669.50;;;19.37;100.00
6204;BME280;3135;42.602;23.468;2023-08-06T07:02:06;91672.03;;;19.56;100.00
6204;BME280;3135;42.602;23.468;2023-08-06T07:04:32;91685.78;;;19.74;100.00
6204;BME280;3135;42.602;23.468;2023-08-06T07:06:57;91687.75;;;19.77;100.00
6204;BME280;3135;42.602;23.468;2023-08-06T07:09:23;91697.50;;;19.85;100.00
6204;BME280;3135;42.602;23.468;2023-08-06T07:11:48;91691.25;;;19.78;100.00
6204;BME280;3135;42.602;23.468;2023-08-06T07:14:13;91686.13;;;19.69;100.00
6204;BME280;3135;42.602;23.468;2023-08-06T07:16:39;91690.41;;;19.70;100.00
6204;BME280;3135;42.602;23.468;2023-08-06T07:19:05;91691.25;;;19.78;100.00
6204;BME280;3135;42.602;23.468;2023-08-06T07:21:31;91698.63;;;19.77;100.00
6204;BME280;3135;42.602;23.468;2023-08-06T07:23:56;91703.31;;;19.84;100.00
6204;BME280;3135;42.602;23.468;2023-08-06T07:26:24;91699.56;;;19.96;100.00
6204;BME280;3135;42.602;23.468;2023-08-06T07:28:49;91693.09;;;20.11;100.00
6204;BME280;3135;42.602;23.468;2023-08-06T07:31:15;91673.69;;;20.05;100.00
6204;BME280;3135;42.602;23.468;2023-08-06T07:33:40;91694.44;;;20.35;100.00
6204;BME280;3135;42.602;23.468;2023-08-06T07:36:13;91695.81;;;20.59;100.00
6204;BME280;3135;42.602;23.468;2023-08-06T07:38:39;91703.19;;;20.62;100.00
6204;BME280;3135;42.602;23.468;2023-08-06T07:41:04;91708.31;;;20.71;100.00
6204;BME280;3135;42.602;23.468;2023-08-06T07:43:30;91693.22;;;20.84;100.00
6204;BME280;3135;42.602;23.468;2023-08-06T07:45:59;91671.19;;;20.96;100.00
6204;BME280;3135;42.602;23.468;2023-08-06T07:48:25;91690.78;;;21.34;100.00
6204;BME280;3135;42.602;23.468;2023-08-06T07:50:52;91685.03;;;21.57;100.00
6204;BME280;3135;42.602;23.468;2023-08-06T07:53:20;91676.50;;;21.58;100.00
6204;BME280;3135;42.602;23.468;2023-08-06T07:55:49;91683.56;;;21.84;100.00
6204;BME280;3135;42.602;23.468;2023-08-06T07:58:14;91684.34;;;21.95;100.00
6204;BME280;3135;42.602;23.468;2023-08-06T08:00:40;91702.22;;;22.11;100.00
6204;BME280;3135;42.602;23.468;2023-08-06T08:03:07;91697.16;;;22.06;100.00
6204;BME280;3135;42.602;23.468;2023-08-06T08:05:33;91679.72;;;22.25;100.00
6204;BME280;3135;42.602;23.468;2023-08-06T08:07:58;91685.16;;;22.28;100.00
6204;BME280;3135;42.602;23.468;2023-08-06T08:10:23;91689.47;;;22.40;100.00
6204;BME280;3135;42.602;23.468;2023-08-06T08:12:49;91696.81;;;22.43;100.00
6204;BME280;3135;42.602;23.468;2023-08-06T08:15:14;91687.50;;;22.51;100.00
6204;BME280;3135;42.602;23.468;2023-08-06T08:17:40;91701.44;;;22.82;100.00
6204;BME280;3135;42.602;23.468;2023-08-06T08:20:06;68413.38;;;-145.89;100.00
6204;BME280;3135;42.602;23.468;2023-08-06T08:22:31;60778.75;;;-145.89;100.00
6204;BME280;3135;42.602;23.468;2023-08-06T08:24:56;60778.75;;;-145.89;100.00
6204;BME280;3135;42.602;23.468;2023-08-06T08:27:22;60778.75;;;-145.89;100.00
6204;BME280;3135;42.602;23.468;2023-08-06T08:29:47;60778.75;;;-145.89;100.00
6204;BME280;3135;42.602;23.468;2023-08-06T08:32:13;60778.75;;;-145.89;100.00
6204;BME280;3135;42.602;23.468;2023-08-06T08:34:38;60778.75;;;-145.89;100.00
6204;BME280;3135;42.602;23.468;2023-08-06T08:37:04;60778.75;;;-145.89;100.00
6204;BME280;3135;42.602;23.468;2023-08-06T08:39:31;60778.75;;;-145.89;100.00
6204;BME280;3135;42.602;23.468;2023-08-06T08:41:56;60778.75;;;-145.89;100.00
6204;BME280;3135;42.602;23.468;2023-08-06T08:44:22;60778.75;;;-145.89;100.00
6204;BME280;3135;42.602;23.468;2023-08-06T08:46:48;60778.75;;;-145.89;100.00
6204;BME280;3135;42.602;23.468;2023-08-06T08:49:14;60778.75;;;-145.89;100.00
6204;BME280;3135;42.602;23.468;2023-08-06T08:51:40;60778.75;;;-145.89;100.00
6204;BME280;3135;42.602;23.468;2023-08-06T08:54:07;60778.75;;;-145.89;100.00
6204;BME280;3135;42.602;23.468;2023-08-06T08:56:33;60778.75;;;-145.89;100.00
6204;BME280;3135;42.602;23.468;2023-08-06T08:58:58;60778.75;;;-145.89;100.00
6204;BME280;3135;42.602;23.468;2023-08-06T09:01:25;60778.75;;;-145.89;100.00
6204;BME280;3135;42.602;23.468;2023-08-06T09:03:51;60778.75;;;-145.89;100.00
6204;BME280;3135;42.602;23.468;2023-08-06T09:06:19;60778.75;;;-145.89;100.00
6204;BME280;3135;42.602;23.468;2023-08-06T09:08:56;60778.75;;;-145.89;100.00
6204;BME280;3135;42.602;23.468;2023-08-06T09:11:26;60778.75;;;-145.89;100.00
6204;BME280;3135;42.602;23.468;2023-08-06T09:13:53;60778.75;;;-145.89;100.00
6204;BME280;3135;42.602;23.468;2023-08-06T09:16:19;60778.75;;;-145.89;100.00
6204;BME280;3135;42.602;23.468;2023-08-06T09:18:44;60778.75;;;-145.89;100.00
6204;BME280;3135;42.602;23.468;2023-08-06T09:21:14;60778.75;;;-145.89;100.00
6204;BME280;3135;42.602;23.468;2023-08-06T09:23:40;60778.75;;;-145.89;100.00
6204;BME280;3135;42.602;23.468;2023-08-06T09:26:06;60778.75;;;-145.89;100.00
6204;BME280;3135;42.602;23.468;2023-08-06T09:28:38;60778.75;;;-145.89;100.00
6204;BME280;3135;42.602;23.468;2023-08-06T09:31:09;60778.75;;;-145.89;100.00
6204;BME280;3135;42.602;23.468;2023-08-06T09:33:36;60778.75;;;-145.89;100.00
6204;BME280;3135;42.602;23.468;2023-08-06T09:36:10;60778.75;;;-145.89;100.00
6204;BME280;3135;42.602;23.468;2023-08-06T09:38:40;60778.75;;;-145.89;100.00
6204;BME280;3135;42.602;23.468;2023-08-06T09:41:06;60778.75;;;-145.89;100.00
6204;BME280;3135;42.602;23.468;2023-08-06T09:43:40;60778.75;;;-145.89;100.00
6204;BME280;3135;42.602;23.468;2023-08-06T09:46:15;60778.75;;;-145.89;100.00
6204;BME280;3135;42.602;23.468;2023-08-06T09:48:45;60778.75;;;-145.89;100.00
6204;BME280;3135;42.602;23.468;2023-08-06T09:51:10;60778.75;;;-145.89;100.00
6204;BME280;3135;42.602;23.468;2023-08-06T09:53:38;60778.75;;;-145.89;100.00
6204;BME280;3135;42.602;23.468;2023-08-06T09:56:05;60778.75;;;-145.89;100.00
6204;BME280;3135;42.602;23.468;2023-08-06T09:58:32;60778.75;;;-145.89;100.00
6204;BME280;3135;42.602;23.468;2023-08-06T10:00:59;60778.75;;;-145.89;100.00
6204;BME280;3135;42.602;23.468;2023-08-06T10:03:25;60778.75;;;-145.89;100.00
6204;BME280;3135;42.602;23.468;2023-08-06T10:05:51;60778.75;;;-145.89;100.00
6204;BME280;3135;42.602;23.468;2023-08-06T10:08:16;60778.75;;;-145.89;100.00
6204;BME280;3135;42.602;23.468;2023-08-06T10:10:42;60778.75;;;-145.89;100.00
6204;BME280;3135;42.602;23.468;2023-08-06T10:13:09;60778.75;;;-145.89;100.00
6204;BME280;3135;42.602;23.468;2023-08-06T10:15:36;60778.75;;;-145.89;100.00
6204;BME280;3135;42.602;23.468;2023-08-06T10:18:04;60778.75;;;-145.89;100.00
6204;BME280;3135;42.602;23.468;2023-08-06T10:20:36;60778.75;;;-145.89;100.00
6204;BME280;3135;42.602;23.468;2023-08-06T10:25:30;60778.75;;;-145.89;100.00
6204;BME280;3135;42.602;23.468;2023-08-06T10:27:56;60778.75;;;-145.89;100.00
6204;BME280;3135;42.602;23.468;2023-08-06T10:30:30;60778.75;;;-145.89;100.00
6204;BME280;3135;42.602;23.468;2023-08-06T10:33:03;60778.75;;;-145.89;100.00
6204;BME280;3135;42.602;23.468;2023-08-06T10:35:46;60778.75;;;-145.89;100.00
6204;BME280;3135;42.602;23.468;2023-08-06T10:38:17;60778.75;;;-145.89;100.00
6204;BME280;3135;42.602;23.468;2023-08-06T10:43:44;60778.75;;;-145.89;100.00
6204;BME280;3135;42.602;23.468;2023-08-06T10:46:22;60778.75;;;-145.89;100.00
6204;BME280;3135;42.602;23.468;2023-08-06T10:48:47;60778.75;;;-145.89;100.00
6204;BME280;3135;42.602;23.468;2023-08-06T10:51:14;60778.75;;;-145.89;100.00
6204;BME280;3135;42.602;23.468;2023-08-06T10:53:44;60778.75;;;-145.89;100.00
6204;BME280;3135;42.602;23.468;2023-08-06T10:56:16;60778.75;;;-145.89;100.00
6204;BME280;3135;42.602;23.468;2023-08-06T10:58:42;60778.75;;;-145.89;100.00
6204;BME280;3135;42.602;23.468;2023-08-06T11:01:09;60778.75;;;-145.89;100.00
6204;BME280;3135;42.602;23.468;2023-08-06T11:03:35;60778.75;;;-145.89;100.00
6204;BME280;3135;42.602;23.468;2023-08-06T11:06:01;60778.75;;;-145.89;100.00
6204;BME280;3135;42.602;23.468;2023-08-06T11:08:32;60778.75;;;-145.89;100.00
6204;BME280;3135;42.602;23.468;2023-08-06T11:11:08;60778.75;;;-145.89;100.00
6204;BME280;3135;42.602;23.468;2023-08-06T11:13:36;60778.75;;;-145.89;100.00
6204;BME280;3135;42.602;23.468;2023-08-06T11:16:01;60778.75;;;-145.89;100.00
6204;BME280;3135;42.602;23.468;2023-08-06T11:18:28;60778.75;;;-145.89;100.00
6204;BME280;3135;42.602;23.468;2023-08-06T11:20:53;60778.75;;;-145.89;100.00
6204;BME280;3135;42.602;23.468;2023-08-06T11:23:19;60778.75;;;-145.89;100.00
6204;BME280;3135;42.602;23.468;2023-08-06T11:25:45;60778.75;;;-145.89;100.00
6204;BME280;3135;42.602;23.468;2023-08-06T11:28:11;60778.75;;;-145.89;100.00
6204;BME280;3135;42.602;23.468;2023-08-06T11:30:37;60778.75;;;-145.89;100.00
6204;BME280;3135;42.602;23.468;2023-08-06T11:33:03;60778.75;;;-145.89;100.00
6204;BME280;3135;42.602;23.468;2023-08-06T11:35:28;60778.75;;;-145.89;100.00
6204;BME280;3135;42.602;23.468;2023-08-06T11:37:54;60778.75;;;-145.89;100.00
6204;BME280;3135;42.602;23.468;2023-08-06T11:40:20;60778.75;;;-145.89;100.00
6204;BME280;3135;42.602;23.468;2023-08-06T11:42:46;60778.75;;;-145.89;100.00
6204;BME280;3135;42.602;23.468;2023-08-06T11:45:12;60778.75;;;-145.89;100.00
6204;BME280;3135;42.602;23.468;2023-08-06T11:47:38;60778.75;;;-145.89;100.00
6204;BME280;3135;42.602;23.468;2023-08-06T11:50:07;60778.75;;;-145.89;100.00
6204;BME280;3135;42.602;23.468;2023-08-06T11:52:33;60778.75;;;-145.89;100.00
6204;BME280;3135;42.602;23.468;2023-08-06T11:57:35;60778.75;;;-145.89;100.00
6204;BME280;3135;42.602;23.468;2023-08-06T12:00:09;60778.75;;;-145.89;100.00
6204;BME280;3135;42.602;23.468;2023-08-06T12:02:35;60778.75;;;-145.89;100.00
6204;BME280;3135;42.602;23.468;2023-08-06T12:05:10;60778.75;;;-145.89;100.00
6204;BME280;3135;42.602;23.468;2023-08-06T12:07:38;60778.75;;;-145.89;100.00
6204;BME280;3135;42.602;23.468;2023-08-06T12:10:04;60778.75;;;-145.89;100.00
6204;BME280;3135;42.602;23.468;2023-08-06T12:12:30;60778.75;;;-145.89;100.00
6204;BME280;3135;42.602;23.468;2023-08-06T12:14:56;60778.75;;;-145.89;100.00
6204;BME280;3135;42.602;23.468;2023-08-06T12:17:23;60778.75;;;-145.89;100.00
6204;BME280;3135;42.602;23.468;2023-08-06T12:19:49;60778.75;;;-145.89;100.00
6204;BME280;3135;42.602;23.468;2023-08-06T12:22:14;60778.75;;;-145.89;100.00
6204;BME280;3135;42.602;23.468;2023-08-06T12:24:41;60778.75;;;-145.89;100.00
6204;BME280;3135;42.602;23.468;2023-08-06T12:27:07;60778.75;;;-145.89;100.00
6204;BME280;3135;42.602;23.468;2023-08-06T12:29:33;60778.75;;;-145.89;100.00
6204;BME280;3135;42.602;23.468;2023-08-06T12:31:58;60778.75;;;-145.89;100.00
6204;BME280;3135;42.602;23.468;2023-08-06T12:34:23;60778.75;;;-145.89;100.00
6204;BME280;3135;42.602;23.468;2023-08-06T12:36:49;60778.75;;;-145.89;100.00
6204;BME280;3135;42.602;23.468;2023-08-06T12:39:14;60778.75;;;-145.89;100.00
6204;BME280;3135;42.602;23.468;2023-08-06T12:41:40;60778.75;;;-145.89;100.00
6204;BME280;3135;42.602;23.468;2023-08-06T12:44:05;60778.75;;;-145.89;100.00
6204;BME280;3135;42.602;23.468;2023-08-06T12:46:31;60778.75;;;-145.89;100.00
6204;BME280;3135;42.602;23.468;2023-08-06T12:48:56;60778.75;;;-145.89;100.00
6204;BME280;3135;42.602;23.468;2023-08-06T12:51:23;60778.75;;;-145.89;100.00
6204;BME280;3135;42.602;23.468;2023-08-06T12:53:49;60778.75;;;-145.89;100.00
6204;BME280;3135;42.602;23.468;2023-08-06T12:56:14;60778.75;;;-145.89;100.00
6204;BME280;3135;42.602;23.468;2023-08-06T12:58:39;60778.75;;;-145.89;100.00
6204;BME280;3135;42.602;23.468;2023-08-06T13:01:05;60778.75;;;-145.89;100.00
6204;BME280;3135;42.602;23.468;2023-08-06T13:03:31;60778.75;;;-145.89;100.00
6204;BME280;3135;42.602;23.468;2023-08-06T13:05:56;60778.75;;;-145.89;100.00
6204;BME280;3135;42.602;23.468;2023-08-06T13:08:23;60778.75;;;-145.89;100.00
6204;BME280;3135;42.602;23.468;2023-08-06T13:10:48;60778.75;;;-145.89;100.00
6204;BME280;3135;42.602;23.468;2023-08-06T13:13:13;60778.75;;;-145.89;100.00
6204;BME280;3135;42.602;23.468;2023-08-06T13:15:39;60778.75;;;-145.89;100.00
6204;BME280;3135;42.602;23.468;2023-08-06T13:18:04;60778.75;;;-145.89;100.00
6204;BME280;3135;42.602;23.468;2023-08-06T13:20:30;60778.75;;;-145.89;100.00
6204;BME280;3135;42.602;23.468;2023-08-06T13:22:57;60778.75;;;-145.89;100.00
6204;BME280;3135;42.602;23.468;2023-08-06T13:25:23;60778.75;;;-145.89;100.00
6204;BME280;3135;42.602;23.468;2023-08-06T13:27:48;60778.75;;;-145.89;100.00
6204;BME280;3135;42.602;23.468;2023-08-06T13:30:15;60778.75;;;-145.89;100.00
6204;BME280;3135;42.602;23.468;2023-08-06T13:32:41;60778.75;;;-145.89;100.00
6204;BME280;3135;42.602;23.468;2023-08-06T13:35:07;60778.75;;;-145.89;100.00
6204;BME280;3135;42.602;23.468;2023-08-06T13:37:32;60778.75;;;-145.89;100.00
6204;BME280;3135;42.602;23.468;2023-08-06T13:39:57;60778.75;;;-145.89;100.00
6204;BME280;3135;42.602;23.468;2023-08-06T13:42:23;60778.75;;;-145.89;100.00
6204;BME280;3135;42.602;23.468;2023-08-06T13:44:48;60778.75;;;-145.89;100.00
6204;BME280;3135;42.602;23.468;2023-08-06T13:47:14;60778.75;;;-145.89;100.00
6204;BME280;3135;42.602;23.468;2023-08-06T13:49:39;60778.75;;;-145.89;100.00
6204;BME280;3135;42.602;23.468;2023-08-06T13:52:05;60778.75;;;-145.89;100.00
6204;BME280;3135;42.602;23.468;2023-08-06T13:54:30;60778.75;;;-145.89;100.00
6204;BME280;3135;42.602;23.468;2023-08-06T13:56:56;60778.75;;;-145.89;100.00
6204;BME280;3135;42.602;23.468;2023-08-06T13:59:21;60778.75;;;-145.89;100.00
6204;BME280;3135;42.602;23.468;2023-08-06T14:01:49;60778.75;;;-145.89;100.00
6204;BME280;3135;42.602;23.468;2023-08-06T14:04:15;60778.75;;;-145.89;100.00
6204;BME280;3135;42.602;23.468;2023-08-06T14:06:40;60778.75;;;-145.89;100.00
6204;BME280;3135;42.602;23.468;2023-08-06T14:09:05;60778.75;;;-145.89;100.00
6204;BME280;3135;42.602;23.468;2023-08-06T14:11:31;60778.75;;;-145.89;100.00
6204;BME280;3135;42.602;23.468;2023-08-06T14:13:56;60778.75;;;-145.89;100.00
6204;BME280;3135;42.602;23.468;2023-08-06T14:16:22;60778.75;;;-145.89;100.00
6204;BME280;3135;42.602;23.468;2023-08-06T14:18:47;60778.75;;;-145.89;100.00
6204;BME280;3135;42.602;23.468;2023-08-06T14:21:13;60778.75;;;-145.89;100.00